sensor_id;sensor_type;location;lat;lon;timestamp;temperature;humidity
5210;DHT22;2624;48.048;11.706;2022-11-20T00:04:27;5.20;99.90
5210;DHT22;2624;48.048;11.706;2022-11-20T00:09:28;5.30;99.90
5210;DHT22;2624;48.048;11.706;2022-11-20T00:14:32;5.10;99.90
5210;DHT22;2624;48.048;11.706;2022-11-20T00:19:33;5.20;99.90
5210;DHT22;2624;48.048;11.706;2022-11-20T00:24:35;5.30;99.90
5210;DHT22;2624;48.048;11.706;2022-11-20T00:29:38;5.30;99.90
5210;DHT22;2624;48.048;11.706;2022-11-20T00:34:40;5.20;99.90
5210;DHT22;2624;48.048;11.706;2022-11-20T00:39:42;5.20;99.90
5210;DHT22;2624;48.048;11.706;2022-11-20T00:44:45;5.20;99.90
5210;DHT22;2624;48.048;11.706;2022-11-20T00:49:47;5.20;99.90
5210;DHT22;2624;48.048;11.706;2022-11-20T00:54:48;5.20;99.90
5210;DHT22;2624;48.048;11.706;2022-11-20T00:59:52;5.20;99.90
5210;DHT22;2624;48.048;11.706;2022-11-20T01:04:53;5.20;99.90
5210;DHT22;2624;48.048;11.706;2022-11-20T01:09:55;5.20;99.90
5210;DHT22;2624;48.048;11.706;2022-11-20T01:14:58;5.20;99.90
5210;DHT22;2624;48.048;11.706;2022-11-20T01:20:00;5.20;99.90
5210;DHT22;2624;48.048;11.706;2022-11-20T01:25:02;5.20;99.90
5210;DHT22;2624;48.048;11.706;2022-11-20T01:30:06;5.10;99.90
5210;DHT22;2624;48.048;11.706;2022-11-20T01:35:08;5.10;99.90
5210;DHT22;2624;48.048;11.706;2022-11-20T01:40:11;5.10;99.90
5210;DHT22;2624;48.048;11.706;2022-11-20T01:45:43;5.10;99.90
5210;DHT22;2624;48.048;11.706;2022-11-20T01:50:52;5.10;99.90
5210;DHT22;2624;48.048;11.706;2022-11-20T01:55:56;5.10;99.90
5210;DHT22;2624;48.048;11.706;2022-11-20T02:01:03;5.10;99.90
5210;DHT22;2624;48.048;11.706;2022-11-20T02:06:10;5.10;99.90
5210;DHT22;2624;48.048;11.706;2022-11-20T02:11:13;5.10;99.90
5210;DHT22;2624;48.048;11.706;2022-11-20T02:16:20;5.10;99.90
5210;DHT22;2624;48.048;11.706;2022-11-20T02:21:28;5.10;99.90
5210;DHT22;2624;48.048;11.706;2022-11-20T02:26:35;5.10;99.90
5210;DHT22;2624;48.048;11.706;2022-11-20T02:31:41;5.10;99.90
5210;DHT22;2624;48.048;11.706;2022-11-20T02:36:44;5.10;99.90
5210;DHT22;2624;48.048;11.706;2022-11-20T02:41:48;5.10;99.90
5210;DHT22;2624;48.048;11.706;2022-11-20T02:46:50;5.00;99.90
5210;DHT22;2624;48.048;11.706;2022-11-20T02:51:51;5.00;99.90
5210;DHT22;2624;48.048;11.706;2022-11-20T02:56:55;5.00;99.90
5210;DHT22;2624;48.048;11.706;2022-11-20T03:01:56;5.10;99.90
5210;DHT22;2624;48.048;11.706;2022-11-20T03:06:58;5.00;99.90
5210;DHT22;2624;48.048;11.706;2022-11-20T03:12:01;5.00;99.90
5210;DHT22;2624;48.048;11.706;2022-11-20T03:17:03;4.90;99.90
5210;DHT22;2624;48.048;11.706;2022-11-20T03:22:05;5.00;99.90
5210;DHT22;2624;48.048;11.706;2022-11-20T03:27:08;5.00;99.90
5210;DHT22;2624;48.048;11.706;2022-11-20T03:32:10;5.10;99.90
5210;DHT22;2624;48.048;11.706;2022-11-20T03:37:12;5.00;99.90
5210;DHT22;2624;48.048;11.706;2022-11-20T03:42:15;5.00;99.90
5210;DHT22;2624;48.048;11.706;2022-11-20T03:47:30;5.00;99.90
5210;DHT22;2624;48.048;11.706;2022-11-20T03:52:32;5.00;99.90
5210;DHT22;2624;48.048;11.706;2022-11-20T03:57:35;5.00;99.90
5210;DHT22;2624;48.048;11.706;2022-11-20T04:02:37;5.00;99.90
5210;DHT22;2624;48.048;11.706;2022-11-20T04:07:39;5.00;99.90
5210;DHT22;2624;48.048;11.706;2022-11-20T04:12:42;5.00;99.90
5210;DHT22;2624;48.048;11.706;2022-11-20T04:17:44;4.90;99.90
5210;DHT22;2624;48.048;11.706;2022-11-20T04:22:46;4.90;99.90
5210;DHT22;2624;48.048;11.706;2022-11-20T04:27:49;5.00;99.90
5210;DHT22;2624;48.048;11.706;2022-11-20T04:32:51;5.00;99.90
5210;DHT22;2624;48.048;11.706;2022-11-20T04:37:53;5.00;99.90
5210;DHT22;2624;48.048;11.706;2022-11-20T04:42:56;5.00;99.90
5210;DHT22;2624;48.048;11.706;2022-11-20T04:47:58;5.00;99.90
5210;DHT22;2624;48.048;11.706;2022-11-20T04:53:00;4.90;99.90
5210;DHT22;2624;48.048;11.706;2022-11-20T04:58:03;4.90;99.90
5210;DHT22;2624;48.048;11.706;2022-11-20T05:03:05;4.80;99.90
5210;DHT22;2624;48.048;11.706;2022-11-20T05:08:08;4.90;99.90
5210;DHT22;2624;48.048;11.706;2022-11-20T05:13:11;4.80;99.90
5210;DHT22;2624;48.048;11.706;2022-11-20T05:18:13;4.80;99.90
5210;DHT22;2624;48.048;11.706;2022-11-20T05:23:15;4.80;99.90
5210;DHT22;2624;48.048;11.706;2022-11-20T05:28:18;4.80;99.90
5210;DHT22;2624;48.048;11.706;2022-11-20T05:33:20;4.80;99.90
5210;DHT22;2624;48.048;11.706;2022-11-20T05:38:22;4.70;99.90
5210;DHT22;2624;48.048;11.706;2022-11-20T05:43:25;4.70;99.90
5210;DHT22;2624;48.048;11.706;2022-11-20T05:48:27;4.70;99.90
5210;DHT22;2624;48.048;11.706;2022-11-20T05:53:29;4.70;99.90
5210;DHT22;2624;48.048;11.706;2022-11-20T05:58:33;4.70;99.90
5210;DHT22;2624;48.048;11.706;2022-11-20T06:03:35;4.80;99.90
5210;DHT22;2624;48.048;11.706;2022-11-20T06:08:37;4.70;99.90
5210;DHT22;2624;48.048;11.706;2022-11-20T06:13:42;4.70;99.90
5210;DHT22;2624;48.048;11.706;2022-11-20T06:18:44;4.70;99.90
5210;DHT22;2624;48.048;11.706;2022-11-20T06:23:46;4.70;99.90
5210;DHT22;2624;48.048;11.706;2022-11-20T06:28:50;4.70;99.90
5210;DHT22;2624;48.048;11.706;2022-11-20T06:33:53;4.70;99.90
5210;DHT22;2624;48.048;11.706;2022-11-20T06:38:54;4.60;99.90
5210;DHT22;2624;48.048;11.706;2022-11-20T06:43:57;4.50;99.90
5210;DHT22;2624;48.048;11.706;2022-11-20T06:48:59;4.50;99.90
5210;DHT22;2624;48.048;11.706;2022-11-20T06:54:01;4.40;99.90
5210;DHT22;2624;48.048;11.706;2022-11-20T06:59:05;4.50;99.90
5210;DHT22;2624;48.048;11.706;2022-11-20T07:04:07;4.40;99.90
5210;DHT22;2624;48.048;11.706;2022-11-20T07:09:09;4.50;99.90
5210;DHT22;2624;48.048;11.706;2022-11-20T07:14:12;4.40;99.90
5210;DHT22;2624;48.048;11.706;2022-11-20T07:19:14;4.40;99.90
5210;DHT22;2624;48.048;11.706;2022-11-20T07:24:16;4.40;99.90
5210;DHT22;2624;48.048;11.706;2022-11-20T07:29:19;4.40;99.90
5210;DHT22;2624;48.048;11.706;2022-11-20T07:34:21;4.50;99.90
5210;DHT22;2624;48.048;11.706;2022-11-20T07:39:22;4.50;99.90
5210;DHT22;2624;48.048;11.706;2022-11-20T07:44:25;4.60;99.90
5210;DHT22;2624;48.048;11.706;2022-11-20T07:49:27;4.60;99.90
5210;DHT22;2624;48.048;11.706;2022-11-20T07:54:29;4.70;99.90
5210;DHT22;2624;48.048;11.706;2022-11-20T07:59:32;4.70;99.90
5210;DHT22;2624;48.048;11.706;2022-11-20T08:04:34;4.70;99.90
5210;DHT22;2624;48.048;11.706;2022-11-20T08:09:36;4.70;99.90
5210;DHT22;2624;48.048;11.706;2022-11-20T08:14:39;4.70;99.90
5210;DHT22;2624;48.048;11.706;2022-11-20T08:19:41;4.70;99.90
5210;DHT22;2624;48.048;11.706;2022-11-20T08:24:42;4.80;99.90
5210;DHT22;2624;48.048;11.706;2022-11-20T08:29:45;4.80;99.90
5210;DHT22;2624;48.048;11.706;2022-11-20T08:34:47;4.80;99.90
5210;DHT22;2624;48.048;11.706;2022-11-20T08:39:49;4.80;99.90
5210;DHT22;2624;48.048;11.706;2022-11-20T08:44:52;4.80;99.90
5210;DHT22;2624;48.048;11.706;2022-11-20T08:49:54;4.80;99.90
5210;DHT22;2624;48.048;11.706;2022-11-20T08:54:56;4.90;99.90
5210;DHT22;2624;48.048;11.706;2022-11-20T08:59:59;4.90;99.90
5210;DHT22;2624;48.048;11.706;2022-11-20T09:05:01;4.90;99.90
5210;DHT22;2624;48.048;11.706;2022-11-20T09:10:04;4.90;99.90
5210;DHT22;2624;48.048;11.706;2022-11-20T09:15:08;5.00;99.90
5210;DHT22;2624;48.048;11.706;2022-11-20T09:20:10;5.00;99.90
5210;DHT22;2624;48.048;11.706;2022-11-20T09:25:12;5.00;99.90
5210;DHT22;2624;48.048;11.706;2022-11-20T09:30:16;5.00;99.90
5210;DHT22;2624;48.048;11.706;2022-11-20T09:35:17;5.10;99.90
5210;DHT22;2624;48.048;11.706;2022-11-20T09:40:21;5.10;99.90
5210;DHT22;2624;48.048;11.706;2022-11-20T09:45:35;5.10;99.90
5210;DHT22;2624;48.048;11.706;2022-11-20T09:50:43;5.10;99.90
5210;DHT22;2624;48.048;11.706;2022-11-20T09:55:48;5.20;99.90
5210;DHT22;2624;48.048;11.706;2022-11-20T10:00:52;5.30;99.90
5210;DHT22;2624;48.048;11.706;2022-11-20T10:05:57;5.30;99.90
5210;DHT22;2624;48.048;11.706;2022-11-20T10:11:05;5.30;99.90
5210;DHT22;2624;48.048;11.706;2022-11-20T10:16:20;5.40;99.90
5210;DHT22;2624;48.048;11.706;2022-11-20T10:21:30;5.50;99.90
5210;DHT22;2624;48.048;11.706;2022-11-20T10:26:43;5.60;99.90
5210;DHT22;2624;48.048;11.706;2022-11-20T10:31:52;5.60;99.90
5210;DHT22;2624;48.048;11.706;2022-11-20T10:36:59;5.70;99.90
5210;DHT22;2624;48.048;11.706;2022-11-20T10:42:08;5.80;99.90
5210;DHT22;2624;48.048;11.706;2022-11-20T10:47:15;5.90;99.90
5210;DHT22;2624;48.048;11.706;2022-11-20T10:52:22;6.10;99.90
5210;DHT22;2624;48.048;11.706;2022-11-20T10:57:35;6.00;99.90
5210;DHT22;2624;48.048;11.706;2022-11-20T11:02:47;6.10;99.90
5210;DHT22;2624;48.048;11.706;2022-11-20T11:07:50;6.00;99.90
5210;DHT22;2624;48.048;11.706;2022-11-20T11:12:54;6.20;99.90
5210;DHT22;2624;48.048;11.706;2022-11-20T11:17:57;6.30;99.90
5210;DHT22;2624;48.048;11.706;2022-11-20T11:22:59;6.00;99.90
5210;DHT22;2624;48.048;11.706;2022-11-20T11:28:03;6.10;99.90
5210;DHT22;2624;48.048;11.706;2022-11-20T11:33:11;6.10;99.90
5210;DHT22;2624;48.048;11.706;2022-11-20T11:38:16;6.00;99.90
5210;DHT22;2624;48.048;11.706;2022-11-20T11:43:22;6.00;99.90
5210;DHT22;2624;48.048;11.706;2022-11-20T11:48:55;6.00;99.90
5210;DHT22;2624;48.048;11.706;2022-11-20T11:53:58;6.00;99.90
5210;DHT22;2624;48.048;11.706;2022-11-20T11:59:04;6.10;99.90
5210;DHT22;2624;48.048;11.706;2022-11-20T12:04:16;6.10;99.90
5210;DHT22;2624;48.048;11.706;2022-11-20T12:09:20;6.10;99.90
5210;DHT22;2624;48.048;11.706;2022-11-20T12:14:31;6.10;99.90
5210;DHT22;2624;48.048;11.706;2022-11-20T12:19:36;6.40;99.90
5210;DHT22;2624;48.048;11.706;2022-11-20T12:24:44;6.50;99.90
5210;DHT22;2624;48.048;11.706;2022-11-20T12:29:56;6.40;99.90
5210;DHT22;2624;48.048;11.706;2022-11-20T12:35:10;6.40;99.90
5210;DHT22;2624;48.048;11.706;2022-11-20T12:40:27;6.30;99.90
5210;DHT22;2624;48.048;11.706;2022-11-20T12:51:08;6.10;99.90
5210;DHT22;2624;48.048;11.706;2022-11-20T12:56:21;6.10;99.90
5210;DHT22;2624;48.048;11.706;2022-11-20T13:01:32;6.10;99.90
5210;DHT22;2624;48.048;11.706;2022-11-20T13:06:45;6.10;99.90
5210;DHT22;2624;48.048;11.706;2022-11-20T13:11:54;6.10;99.90
5210;DHT22;2624;48.048;11.706;2022-11-20T13:17:05;6.10;99.90
5210;DHT22;2624;48.048;11.706;2022-11-20T13:22:09;6.00;99.90
5210;DHT22;2624;48.048;11.706;2022-11-20T13:27:19;6.10;99.90
5210;DHT22;2624;48.048;11.706;2022-11-20T13:32:22;6.00;99.90
5210;DHT22;2624;48.048;11.706;2022-11-20T13:37:28;6.00;99.90
5210;DHT22;2624;48.048;11.706;2022-11-20T13:42:31;6.00;99.90
5210;DHT22;2624;48.048;11.706;2022-11-20T13:47:37;6.00;99.90
5210;DHT22;2624;48.048;11.706;2022-11-20T13:52:46;5.90;99.90
5210;DHT22;2624;48.048;11.706;2022-11-20T13:58:18;6.00;99.90
5210;DHT22;2624;48.048;11.706;2022-11-20T14:03:24;5.90;99.90
5210;DHT22;2624;48.048;11.706;2022-11-20T14:08:35;5.90;99.90
5210;DHT22;2624;48.048;11.706;2022-11-20T14:13:37;5.90;99.90
5210;DHT22;2624;48.048;11.706;2022-11-20T14:18:39;5.90;99.90
5210;DHT22;2624;48.048;11.706;2022-11-20T14:23:42;5.80;99.90
5210;DHT22;2624;48.048;11.706;2022-11-20T14:28:48;5.90;99.90
5210;DHT22;2624;48.048;11.706;2022-11-20T14:33:51;5.90;99.90
5210;DHT22;2624;48.048;11.706;2022-11-20T14:38:55;5.90;99.90
5210;DHT22;2624;48.048;11.706;2022-11-20T14:43:57;5.90;99.90
5210;DHT22;2624;48.048;11.706;2022-11-20T14:49:01;5.90;99.90
5210;DHT22;2624;48.048;11.706;2022-11-20T14:54:14;5.90;99.90
5210;DHT22;2624;48.048;11.706;2022-11-20T14:59:23;5.90;99.90
5210;DHT22;2624;48.048;11.706;2022-11-20T15:04:24;5.90;99.90
5210;DHT22;2624;48.048;11.706;2022-11-20T15:09:28;5.90;99.90
5210;DHT22;2624;48.048;11.706;2022-11-20T15:14:30;5.90;99.90
5210;DHT22;2624;48.048;11.706;2022-11-20T15:19:34;5.90;99.90
5210;DHT22;2624;48.048;11.706;2022-11-20T15:24:37;5.90;99.90
5210;DHT22;2624;48.048;11.706;2022-11-20T15:29:39;5.90;99.90
5210;DHT22;2624;48.048;11.706;2022-11-20T15:34:41;5.90;99.90
5210;DHT22;2624;48.048;11.706;2022-11-20T15:39:44;5.80;99.90
5210;DHT22;2624;48.048;11.706;2022-11-20T15:44:45;5.80;99.90
5210;DHT22;2624;48.048;11.706;2022-11-20T15:49:47;5.80;99.90
5210;DHT22;2624;48.048;11.706;2022-11-20T15:54:50;5.80;99.90
5210;DHT22;2624;48.048;11.706;2022-11-20T15:59:52;5.70;99.90
5210;DHT22;2624;48.048;11.706;2022-11-20T16:04:54;5.80;99.90
5210;DHT22;2624;48.048;11.706;2022-11-20T16:09:57;5.80;99.90
5210;DHT22;2624;48.048;11.706;2022-11-20T16:14:59;5.80;99.90
5210;DHT22;2624;48.048;11.706;2022-11-20T16:20:18;5.80;99.90
5210;DHT22;2624;48.048;11.706;2022-11-20T16:25:22;5.80;99.90
5210;DHT22;2624;48.048;11.706;2022-11-20T16:30:24;5.80;99.90
5210;DHT22;2624;48.048;11.706;2022-11-20T16:35:26;5.70;99.90
5210;DHT22;2624;48.048;11.706;2022-11-20T16:40:29;5.60;99.90
5210;DHT22;2624;48.048;11.706;2022-11-20T16:45:31;5.60;99.90
5210;DHT22;2624;48.048;11.706;2022-11-20T16:50:33;5.50;99.90
5210;DHT22;2624;48.048;11.706;2022-11-20T16:55:36;5.40;99.90
5210;DHT22;2624;48.048;11.706;2022-11-20T17:00:38;5.30;99.90
5210;DHT22;2624;48.048;11.706;2022-11-20T17:05:40;5.20;99.90
5210;DHT22;2624;48.048;11.706;2022-11-20T17:10:43;5.30;99.90
5210;DHT22;2624;48.048;11.706;2022-11-20T17:15:45;5.30;99.90
5210;DHT22;2624;48.048;11.706;2022-11-20T17:20:50;5.10;99.90
5210;DHT22;2624;48.048;11.706;2022-11-20T17:26:00;5.00;99.90
5210;DHT22;2624;48.048;11.706;2022-11-20T17:31:04;5.00;99.90
5210;DHT22;2624;48.048;11.706;2022-11-20T17:36:08;5.00;99.90
5210;DHT22;2624;48.048;11.706;2022-11-20T17:41:13;4.70;99.90
5210;DHT22;2624;48.048;11.706;2022-11-20T17:46:16;4.80;99.90
5210;DHT22;2624;48.048;11.706;2022-11-20T17:51:20;4.70;99.90
5210;DHT22;2624;48.048;11.706;2022-11-20T17:56:23;5.00;99.90
5210;DHT22;2624;48.048;11.706;2022-11-20T18:01:42;5.00;99.90
5210;DHT22;2624;48.048;11.706;2022-11-20T18:06:44;4.60;99.90
5210;DHT22;2624;48.048;11.706;2022-11-20T18:11:47;4.80;99.90
5210;DHT22;2624;48.048;11.706;2022-11-20T18:16:51;5.00;99.90
5210;DHT22;2624;48.048;11.706;2022-11-20T18:21:53;4.70;99.90
5210;DHT22;2624;48.048;11.706;2022-11-20T18:26:56;4.30;99.90
5210;DHT22;2624;48.048;11.706;2022-11-20T18:31:59;4.30;99.90
5210;DHT22;2624;48.048;11.706;2022-11-20T18:37:00;4.30;99.90
5210;DHT22;2624;48.048;11.706;2022-11-20T18:42:04;4.20;99.90
5210;DHT22;2624;48.048;11.706;2022-11-20T18:47:25;4.10;99.90
5210;DHT22;2624;48.048;11.706;2022-11-20T18:52:29;3.90;99.90
5210;DHT22;2624;48.048;11.706;2022-11-20T18:57:34;4.00;99.90
5210;DHT22;2624;48.048;11.706;2022-11-20T19:02:37;4.10;99.90
5210;DHT22;2624;48.048;11.706;2022-11-20T19:07:39;3.90;99.90
5210;DHT22;2624;48.048;11.706;2022-11-20T19:12:42;4.10;99.90
5210;DHT22;2624;48.048;11.706;2022-11-20T19:17:44;3.90;99.90
5210;DHT22;2624;48.048;11.706;2022-11-20T19:22:49;3.80;99.90
5210;DHT22;2624;48.048;11.706;2022-11-20T19:27:52;4.20;99.90
5210;DHT22;2624;48.048;11.706;2022-11-20T19:32:54;4.20;99.90
5210;DHT22;2624;48.048;11.706;2022-11-20T19:37:57;3.90;99.90
5210;DHT22;2624;48.048;11.706;2022-11-20T19:43:00;3.60;99.90
5210;DHT22;2624;48.048;11.706;2022-11-20T19:48:02;3.80;99.90
5210;DHT22;2624;48.048;11.706;2022-11-20T19:53:04;3.80;99.90
5210;DHT22;2624;48.048;11.706;2022-11-20T19:58:08;3.70;99.90
5210;DHT22;2624;48.048;11.706;2022-11-20T20:03:10;3.70;99.90
5210;DHT22;2624;48.048;11.706;2022-11-20T20:08:12;3.80;99.90
5210;DHT22;2624;48.048;11.706;2022-11-20T20:13:15;3.80;99.90
5210;DHT22;2624;48.048;11.706;2022-11-20T20:18:17;3.60;99.90
5210;DHT22;2624;48.048;11.706;2022-11-20T20:23:19;3.80;99.90
5210;DHT22;2624;48.048;11.706;2022-11-20T20:28:22;3.60;99.90
5210;DHT22;2624;48.048;11.706;2022-11-20T20:33:23;3.60;99.90
5210;DHT22;2624;48.048;11.706;2022-11-20T20:38:25;3.50;99.90
5210;DHT22;2624;48.048;11.706;2022-11-20T20:43:29;3.50;99.90
5210;DHT22;2624;48.048;11.706;2022-11-20T20:48:30;3.60;99.90
5210;DHT22;2624;48.048;11.706;2022-11-20T20:53:32;3.50;99.90
5210;DHT22;2624;48.048;11.706;2022-11-20T20:58:35;3.50;99.90
5210;DHT22;2624;48.048;11.706;2022-11-20T21:03:37;3.60;99.90
5210;DHT22;2624;48.048;11.706;2022-11-20T21:08:39;3.70;99.90
5210;DHT22;2624;48.048;11.706;2022-11-20T21:13:43;3.60;99.90
5210;DHT22;2624;48.048;11.706;2022-11-20T21:18:45;3.70;99.90
5210;DHT22;2624;48.048;11.706;2022-11-20T21:23:47;3.80;99.90
5210;DHT22;2624;48.048;11.706;2022-11-20T21:28:52;3.70;99.90
5210;DHT22;2624;48.048;11.706;2022-11-20T21:33:55;3.70;99.90
5210;DHT22;2624;48.048;11.706;2022-11-20T21:38:58;3.70;99.90
5210;DHT22;2624;48.048;11.706;2022-11-20T21:44:03;3.60;99.90
5210;DHT22;2624;48.048;11.706;2022-11-20T21:49:05;3.80;99.90
5210;DHT22;2624;48.048;11.706;2022-11-20T21:54:08;3.90;99.90
5210;DHT22;2624;48.048;11.706;2022-11-20T21:59:12;4.00;99.90
5210;DHT22;2624;48.048;11.706;2022-11-20T22:04:14;4.00;99.90
5210;DHT22;2624;48.048;11.706;2022-11-20T22:09:16;4.20;99.90
5210;DHT22;2624;48.048;11.706;2022-11-20T22:14:19;4.20;99.90
5210;DHT22;2624;48.048;11.706;2022-11-20T22:19:21;4.10;99.90
5210;DHT22;2624;48.048;11.706;2022-11-20T22:24:23;4.00;99.90
5210;DHT22;2624;48.048;11.706;2022-11-20T22:29:26;3.90;99.90
5210;DHT22;2624;48.048;11.706;2022-11-20T22:34:28;3.90;99.90
5210;DHT22;2624;48.048;11.706;2022-11-20T22:39:30;3.90;99.90
5210;DHT22;2624;48.048;11.706;2022-11-20T22:44:33;3.80;99.90
5210;DHT22;2624;48.048;11.706;2022-11-20T22:49:35;3.80;99.90
5210;DHT22;2624;48.048;11.706;2022-11-20T22:54:37;3.80;99.90
5210;DHT22;2624;48.048;11.706;2022-11-20T22:59:40;3.80;99.90
5210;DHT22;2624;48.048;11.706;2022-11-20T23:04:42;3.80;99.90
5210;DHT22;2624;48.048;11.706;2022-11-20T23:09:43;4.00;99.90
5210;DHT22;2624;48.048;11.706;2022-11-20T23:14:46;3.80;99.90
5210;DHT22;2624;48.048;11.706;2022-11-20T23:19:48;3.70;99.90
5210;DHT22;2624;48.048;11.706;2022-11-20T23:24:50;3.70;99.90
5210;DHT22;2624;48.048;11.706;2022-11-20T23:29:53;3.70;99.90
5210;DHT22;2624;48.048;11.706;2022-11-20T23:34:56;3.60;99.90
5210;DHT22;2624;48.048;11.706;2022-11-20T23:39:57;3.60;99.90
5210;DHT22;2624;48.048;11.706;2022-11-20T23:45:00;3.50;99.90
5210;DHT22;2624;48.048;11.706;2022-11-20T23:50:03;3.60;99.90
5210;DHT22;2624;48.048;11.706;2022-11-20T23:55:05;3.50;99.90
